Terminal Aerodrome Forecast
Issued by NWS

Home | Current Version | Previous Version | Text Only | Print | Product List | Glossary On
Versions: 1 2 3 4 5 6 7 8 9 10 11 12 13 14 15 16 17 18 19 20 21 22
000
FTUS45 KREV 261129
TAFTRK
TAF
KTRK 261129Z 2612/2712 VRB03KT P6SM SCT035 OVC050
     FM261500 24015G28KT P6SM -SHRA BKN020 OVC035
     FM261900 26017G32KT P6SM VCSH SCT025 OVC040 WS020/26050KT
     FM270100 25009G16KT P6SM SCT025 BKN050
     FM270400 VRB04KT P6SM SCT050 BKN080=

USA.gov is the U.S. government's official web portal to all federal, state and local government web resources and services.